createdAt,value
2023-03-16T00:01:50.411Z,58.40
2023-03-16T00:04:24.582Z,56.80
2023-03-16T00:06:59.055Z,59.40
2023-03-16T00:09:35.336Z,61.80
2023-03-16T00:12:15.395Z,57.70
2023-03-16T00:14:49.648Z,58.10
2023-03-16T00:17:39.692Z,55.80
2023-03-16T00:20:23.795Z,55.30
2023-03-16T00:22:57.729Z,55.30
2023-03-16T00:25:31.793Z,79.50
2023-03-16T00:28:08.941Z,80.60
2023-03-16T00:30:39.641Z,77.10
2023-03-16T00:33:24.572Z,75.60
2023-03-16T00:36:07.909Z,76.60
2023-03-16T00:38:54.710Z,64.50
2023-03-16T00:41:37.714Z,64.40
2023-03-16T00:44:09.296Z,63.00
2023-03-16T00:46:43.059Z,63.70
2023-03-16T00:49:25.083Z,61.10
2023-03-16T00:51:53.770Z,64.90
2023-03-16T00:54:40.345Z,66.60
2023-03-16T00:57:31.025Z,63.90
2023-03-16T01:00:08.942Z,63.30
2023-03-16T01:02:41.774Z,63.90
2023-03-16T01:05:21.575Z,63.30
2023-03-16T01:07:54.801Z,67.40
2023-03-16T01:10:36.999Z,63.70
2023-03-16T01:13:07.894Z,62.80
2023-03-16T01:15:45.720Z,65.30
2023-03-16T01:18:24.243Z,66.00
2023-03-16T01:21:11.265Z,67.90
2023-03-16T01:23:50.169Z,67.60
2023-03-16T01:26:26.883Z,66.30
2023-03-16T01:29:04.100Z,65.00
2023-03-16T01:31:48.009Z,66.70
2023-03-16T01:34:27.537Z,65.50
2023-03-16T01:37:11.643Z,65.50
2023-03-16T01:40:14.188Z,62.00
2023-03-16T01:43:06.966Z,62.80
2023-03-16T01:46:07.382Z,61.30
2023-03-16T01:49:09.799Z,59.70
2023-03-16T01:51:51.470Z,58.60
2023-03-16T01:54:27.649Z,58.60
2023-03-16T01:57:04.356Z,57.70
2023-03-16T01:59:46.242Z,57.90
2023-03-16T02:02:27.719Z,58.50
2023-03-16T02:05:35.243Z,58.20
2023-03-16T02:08:09.980Z,62.20
2023-03-16T02:10:46.225Z,59.80
2023-03-16T02:13:23.298Z,59.50
2023-03-16T02:16:06.149Z,59.20
2023-03-16T02:18:42.882Z,57.60
2023-03-16T02:21:16.480Z,52.00
2023-03-16T02:23:50.374Z,56.70
2023-03-16T02:26:53.435Z,57.70
2023-03-16T02:30:08.536Z,56.20
2023-03-16T02:32:53.527Z,49.90
2023-03-16T02:35:26.082Z,50.00
2023-03-16T02:38:10.500Z,44.70
2023-03-16T02:40:59.950Z,41.50
2023-03-16T02:43:50.384Z,39.30
2023-03-16T02:46:37.908Z,36.00
2023-03-16T02:49:25.682Z,35.80
2023-03-16T02:52:09.494Z,34.70
2023-03-16T02:54:43.536Z,33.60
2023-03-16T02:57:27.272Z,33.50
2023-03-16T03:00:21.706Z,32.10
2023-03-16T03:02:54.835Z,32.10
2023-03-16T03:05:32.702Z,31.50
2023-03-16T03:08:09.755Z,30.00
2023-03-16T03:10:39.573Z,29.40
2023-03-16T03:13:15.499Z,30.40
2023-03-16T03:15:54.122Z,28.70
2023-03-16T03:18:31.150Z,28.80
2023-03-16T03:21:04.001Z,28.20
2023-03-16T03:23:37.999Z,27.00
2023-03-16T03:26:21.350Z,26.50
2023-03-16T03:29:13.854Z,28.10
2023-03-16T03:31:51.580Z,25.70
2023-03-16T03:34:31.191Z,27.30
2023-03-16T03:37:09.266Z,26.90
2023-03-16T03:39:44.752Z,27.80
2023-03-16T03:42:28.128Z,25.90
2023-03-16T03:45:12.487Z,25.70
2023-03-16T03:47:48.406Z,24.90
2023-03-16T03:50:24.935Z,24.30
2023-03-16T03:53:13.346Z,22.30
2023-03-16T03:56:10.705Z,24.00
2023-03-16T03:58:54.945Z,23.50
2023-03-16T04:01:40.192Z,24.60
2023-03-16T04:04:16.442Z,23.80
2023-03-16T04:06:51.291Z,22.00
2023-03-16T04:09:23.454Z,23.00
2023-03-16T04:12:01.635Z,21.50
2023-03-16T04:14:35.695Z,22.50
2023-03-16T04:17:14.006Z,20.40
2023-03-16T04:19:48.866Z,21.30
2023-03-16T04:22:23.519Z,21.20
2023-03-16T04:24:58.081Z,21.00
2023-03-16T04:27:36.266Z,21.40
2023-03-16T04:30:14.046Z,19.90
2023-03-16T04:32:52.070Z,20.40
2023-03-16T04:35:27.216Z,22.00
2023-03-16T04:38:02.749Z,20.20
2023-03-16T04:40:44.886Z,19.40
2023-03-16T04:43:20.657Z,19.50
2023-03-16T04:45:52.455Z,21.10
2023-03-16T04:48:26.700Z,20.30
2023-03-16T04:51:03.327Z,19.20
2023-03-16T04:53:48.154Z,22.10
2023-03-16T04:56:25.395Z,21.20
2023-03-16T04:59:05.789Z,21.60
2023-03-16T05:01:45.970Z,25.10
2023-03-16T05:04:19.962Z,26.30
2023-03-16T05:07:00.074Z,24.80
2023-03-16T05:09:35.947Z,25.00
2023-03-16T05:14:41.138Z,21.80
2023-03-16T05:17:20.019Z,25.70
2023-03-16T05:19:52.149Z,28.70
2023-03-16T05:22:33.392Z,22.70
2023-03-16T05:25:22.062Z,20.10
2023-03-16T05:27:56.686Z,19.90
2023-03-16T05:30:40.302Z,26.90
2023-03-16T05:33:12.964Z,23.20
2023-03-16T05:35:43.915Z,17.90
2023-03-16T05:38:18.097Z,20.80
2023-03-16T05:41:06.383Z,20.10
2023-03-16T05:44:10.409Z,19.40
2023-03-16T05:49:57.114Z,17.50
2023-03-16T05:52:44.906Z,19.20
2023-03-16T05:55:31.079Z,18.20
2023-03-16T05:58:17.770Z,17.20
2023-03-16T06:00:47.145Z,17.90
2023-03-16T06:03:30.739Z,20.60
2023-03-16T06:06:08.408Z,21.20
2023-03-16T06:08:50.534Z,27.10
2023-03-16T06:11:36.761Z,32.60
2023-03-16T06:14:08.783Z,34.40
2023-03-16T06:16:51.126Z,32.70
2023-03-16T06:19:31.667Z,63.90
2023-03-16T06:22:17.161Z,80.60
2023-03-16T06:24:49.213Z,35.60
2023-03-16T06:27:21.880Z,18.50
2023-03-16T06:30:16.526Z,24.80
2023-03-16T06:32:48.722Z,27.00
2023-03-16T06:35:18.085Z,18.60
2023-03-16T06:38:01.822Z,18.10
2023-03-16T06:41:01.891Z,16.10
2023-03-16T06:43:51.601Z,14.20
2023-03-16T06:46:24.709Z,16.00
2023-03-16T06:49:02.766Z,20.80
2023-03-16T06:51:39.635Z,18.50
2023-03-16T06:54:36.148Z,15.30
2023-03-16T06:57:12.219Z,14.80
2023-03-16T06:59:47.059Z,14.20
2023-03-16T07:02:27.368Z,15.60
2023-03-16T07:05:05.488Z,14.50
2023-03-16T07:07:43.131Z,17.50
2023-03-16T07:10:20.167Z,14.80
2023-03-16T07:12:50.275Z,16.30
2023-03-16T07:15:27.660Z,17.40
2023-03-16T07:18:09.641Z,19.20
2023-03-16T07:20:44.165Z,15.30
2023-03-16T07:23:15.270Z,14.00
2023-03-16T07:25:48.407Z,13.80
2023-03-16T07:28:25.903Z,14.10
2023-03-16T07:31:17.376Z,12.30
2023-03-16T07:33:59.988Z,15.50
2023-03-16T07:36:38.288Z,13.70
2023-03-16T07:39:17.281Z,11.50
2023-03-16T07:42:04.244Z,11.40
2023-03-16T07:45:15.415Z,11.50
2023-03-16T07:48:14.162Z,14.90
2023-03-16T07:50:56.103Z,12.30
2023-03-16T07:53:38.516Z,14.60
2023-03-16T07:56:27.216Z,12.60
2023-03-16T07:59:05.728Z,12.40
2023-03-16T08:01:44.269Z,14.80
2023-03-16T08:04:42.419Z,12.90
2023-03-16T08:07:29.187Z,13.40
2023-03-16T08:10:19.222Z,15.00
2023-03-16T08:13:10.821Z,11.00
2023-03-16T08:16:11.805Z,9.60
2023-03-16T08:18:44.786Z,35.80
2023-03-16T08:21:17.836Z,12.90
2023-03-16T08:23:54.089Z,11.40
2023-03-16T08:26:31.311Z,12.80
2023-03-16T08:29:03.301Z,12.20
2023-03-16T08:31:42.235Z,10.70
2023-03-16T08:34:24.154Z,10.90
2023-03-16T08:36:56.390Z,9.50
2023-03-16T08:39:27.565Z,11.50
2023-03-16T08:42:01.431Z,9.00
2023-03-16T08:44:39.625Z,9.10
2023-03-16T08:47:13.725Z,12.70
2023-03-16T08:49:46.924Z,8.00
2023-03-16T08:52:54.814Z,11.20
2023-03-16T08:55:50.461Z,11.80
2023-03-16T08:58:33.043Z,9.50
2023-03-16T09:01:05.188Z,8.50
2023-03-16T09:03:56.648Z,7.30
2023-03-16T09:06:41.398Z,5.80
2023-03-16T09:09:27.800Z,6.90
2023-03-16T09:11:59.411Z,6.20
2023-03-16T09:14:31.811Z,6.50
2023-03-16T09:17:02.518Z,8.20
2023-03-16T09:19:50.098Z,8.80
2023-03-16T09:22:26.936Z,8.90
2023-03-16T09:24:58.399Z,8.70
2023-03-16T09:27:36.737Z,7.20
2023-03-16T09:30:11.706Z,8.10
2023-03-16T09:32:58.483Z,8.50
2023-03-16T09:35:49.809Z,9.60
2023-03-16T09:38:44.362Z,7.20
2023-03-16T09:42:26.105Z,5.70
2023-03-16T09:46:16.089Z,5.70
2023-03-16T09:48:48.315Z,5.50
2023-03-16T09:52:10.460Z,5.40
2023-03-16T09:55:56.492Z,6.30
2023-03-16T09:58:59.321Z,5.70
2023-03-16T10:02:07.804Z,5.20
2023-03-16T10:05:21.377Z,6.60
2023-03-16T10:08:28.178Z,6.40
2023-03-16T10:11:36.248Z,5.70
2023-03-16T10:14:55.331Z,9.70
2023-03-16T10:18:13.331Z,5.20
2023-03-16T10:20:57.590Z,4.80
2023-03-16T10:23:44.997Z,4.30
2023-03-16T10:29:37.484Z,5.20
2023-03-16T10:32:34.060Z,3.40
2023-03-16T10:35:57.007Z,4.50
2023-03-16T10:39:22.590Z,5.50
2023-03-16T10:42:21.993Z,5.80
2023-03-16T10:45:04.052Z,5.80
2023-03-16T10:47:43.127Z,5.30
2023-03-16T10:50:35.941Z,5.50
2023-03-16T10:53:39.136Z,5.40
2023-03-16T10:59:41.158Z,5.00
2023-03-16T11:02:41.708Z,6.20
2023-03-16T11:05:32.491Z,4.80
2023-03-16T11:08:15.907Z,7.80
2023-03-16T11:10:59.791Z,6.10
2023-03-16T11:13:53.376Z,5.20
2023-03-16T11:17:03.308Z,6.10
2023-03-16T11:20:14.785Z,5.00
2023-03-16T11:22:55.224Z,4.70
2023-03-16T11:25:48.516Z,4.60
2023-03-16T11:28:30.871Z,5.60
2023-03-16T11:31:42.508Z,5.30
2023-03-16T11:34:23.142Z,4.40
2023-03-16T11:37:18.340Z,4.80
2023-03-16T11:40:32.858Z,4.90
2023-03-16T11:43:21.748Z,4.60
2023-03-16T11:46:17.880Z,5.10
2023-03-16T11:49:38.836Z,4.60
2023-03-16T11:52:49.478Z,4.40
2023-03-16T11:55:41.656Z,3.80
2023-03-16T11:58:42.059Z,6.30
2023-03-16T12:01:58.177Z,4.00
2023-03-16T12:04:50.514Z,5.50
2023-03-16T12:07:39.554Z,4.00
2023-03-16T12:10:32.470Z,5.00
2023-03-16T12:13:17.318Z,4.80
2023-03-16T12:16:13.955Z,5.20
2023-03-16T12:19:34.314Z,5.20
2023-03-16T12:22:44.152Z,6.20
2023-03-16T12:25:51.279Z,4.40
2023-03-16T12:28:31.908Z,4.80
2023-03-16T12:31:22.501Z,6.80
2023-03-16T12:34:16.245Z,4.70
2023-03-16T12:37:20.850Z,4.90
2023-03-16T12:40:31.214Z,4.30
2023-03-16T12:43:39.393Z,5.30
2023-03-16T12:46:58.598Z,4.80
2023-03-16T12:49:39.122Z,3.80
2023-03-16T12:52:14.861Z,4.90
2023-03-16T12:55:25.814Z,4.30
2023-03-16T12:58:14.499Z,5.50
2023-03-16T13:01:04.958Z,4.20
2023-03-16T13:03:39.198Z,4.40
2023-03-16T13:06:29.796Z,4.80
2023-03-16T13:09:14.184Z,4.30
2023-03-16T13:12:48.869Z,3.70
2023-03-16T13:16:02.569Z,4.30
2023-03-16T13:19:51.804Z,4.60
2023-03-16T13:23:14.386Z,4.50
2023-03-16T13:26:17.858Z,3.70
2023-03-16T13:29:44.340Z,3.30
2023-03-16T13:37:14.630Z,3.20
2023-03-16T13:41:17.551Z,3.20
2023-03-16T13:43:50.645Z,3.10
2023-03-16T13:54:01.810Z,3.70
2023-03-16T13:57:14.436Z,2.80
2023-03-16T14:00:52.229Z,3.40
2023-03-16T14:29:10.270Z,4.80
2023-03-16T15:08:49.063Z,4.70
2023-03-16T15:11:57.351Z,4.60
2023-03-16T15:14:54.981Z,5.40
2023-03-16T15:17:54.187Z,4.10
2023-03-16T15:20:46.098Z,4.90
2023-03-16T15:23:33.187Z,4.80
2023-03-16T15:26:11.354Z,4.80
2023-03-16T15:28:45.635Z,24.90
2023-03-16T15:31:21.122Z,5.70
2023-03-16T15:33:57.238Z,4.40
2023-03-16T15:36:28.985Z,3.90
2023-03-16T15:39:03.531Z,8.00
2023-03-16T15:41:46.756Z,9.00
2023-03-16T15:44:26.004Z,10.00
2023-03-16T15:46:57.313Z,10.30
2023-03-16T15:49:47.269Z,16.70
2023-03-16T15:52:39.890Z,13.40
2023-03-16T15:55:36.394Z,12.80
2023-03-16T15:58:26.996Z,13.30
2023-03-16T16:01:03.254Z,10.80
2023-03-16T16:03:34.581Z,11.50
2023-03-16T16:06:13.976Z,13.40
2023-03-16T16:08:48.916Z,13.40
2023-03-16T16:11:26.137Z,12.30
2023-03-16T16:14:07.057Z,17.10
2023-03-16T16:16:59.273Z,18.50
2023-03-16T16:19:38.348Z,20.00
2023-03-16T16:22:13.836Z,21.80
2023-03-16T16:24:55.188Z,21.60
2023-03-16T16:27:28.995Z,23.70
2023-03-16T16:33:31.773Z,25.10
2023-03-16T16:36:29.193Z,22.60
2023-03-16T16:39:10.047Z,22.10
2023-03-16T16:42:02.233Z,21.20
2023-03-16T16:44:40.273Z,21.20
2023-03-16T16:47:23.281Z,26.40
2023-03-16T16:50:31.329Z,30.50
2023-03-16T16:53:24.886Z,29.00
2023-03-16T16:56:00.124Z,29.20
2023-03-16T16:58:47.532Z,28.70
2023-03-16T17:01:53.153Z,29.00
2023-03-16T17:08:46.343Z,29.70
2023-03-16T17:12:34.136Z,32.90
2023-03-16T17:16:19.570Z,33.50
2023-03-16T17:23:59.615Z,23.10
2023-03-16T17:27:13.659Z,30.50
2023-03-16T17:30:16.499Z,58.30
2023-03-16T17:33:05.863Z,60.70
2023-03-16T17:36:21.041Z,46.90
2023-03-16T17:39:36.865Z,53.40
2023-03-16T17:42:51.251Z,48.30
2023-03-16T17:45:37.123Z,47.00
2023-03-16T17:49:11.546Z,68.40
2023-03-16T17:52:38.746Z,99.60
2023-03-16T17:55:20.960Z,87.00
2023-03-16T17:58:35.198Z,68.50
2023-03-16T18:01:39.309Z,101.50
2023-03-16T18:05:07.184Z,120.70
2023-03-16T18:07:48.988Z,98.60
2023-03-16T18:11:09.510Z,86.30
2023-03-16T18:18:19.426Z,91.00
2023-03-16T18:25:40.732Z,76.60
2023-03-16T18:28:27.738Z,66.00
2023-03-16T18:31:12.393Z,64.60
2023-03-16T18:34:01.288Z,67.80
2023-03-16T18:36:48.561Z,75.40
2023-03-16T18:39:27.479Z,77.90
2023-03-16T18:42:04.726Z,78.40
2023-03-16T18:44:53.795Z,77.50
2023-03-16T18:48:05.639Z,79.10
2023-03-16T18:50:54.801Z,148.20
2023-03-16T18:54:02.861Z,127.00
2023-03-16T19:00:35.570Z,117.30
2023-03-16T19:03:46.924Z,117.00
2023-03-16T19:06:44.010Z,133.90
2023-03-16T19:09:55.452Z,150.30
2023-03-16T19:16:26.485Z,133.30
2023-03-16T19:19:20.038Z,174.10
2023-03-16T19:22:44.988Z,179.10
2023-03-16T19:25:34.649Z,174.20
2023-03-16T19:28:33.648Z,174.90
2023-03-16T19:31:49.906Z,164.80
2023-03-16T19:34:30.510Z,160.90
2023-03-16T19:37:44.794Z,159.00
2023-03-16T19:41:26.825Z,198.50
2023-03-16T19:45:01.793Z,242.90
2023-03-16T19:48:25.302Z,302.30
2023-03-16T19:51:36.846Z,222.80
2023-03-16T19:54:44.683Z,226.20
2023-03-16T19:57:23.317Z,175.90
2023-03-16T19:59:59.751Z,126.90
2023-03-16T20:02:44.528Z,192.90
2023-03-16T20:05:20.953Z,225.90
2023-03-16T20:08:03.421Z,158.30
2023-03-16T20:10:36.234Z,145.10
2023-03-16T20:13:07.133Z,135.90
2023-03-16T20:15:36.988Z,123.50
2023-03-16T20:18:16.216Z,145.20
2023-03-16T20:20:45.660Z,134.50
2023-03-16T20:23:30.311Z,115.70
2023-03-16T20:26:03.044Z,114.60
2023-03-16T20:28:43.868Z,137.10
2023-03-16T20:31:29.596Z,107.50
2023-03-16T20:33:58.880Z,103.80
2023-03-16T20:36:27.953Z,108.40
2023-03-16T20:39:03.915Z,110.00
2023-03-16T20:41:39.570Z,104.90
2023-03-16T20:44:26.294Z,100.70
2023-03-16T20:47:01.276Z,118.40
2023-03-16T20:49:37.999Z,131.40
2023-03-16T20:52:30.443Z,129.30
2023-03-16T20:55:06.201Z,111.50
2023-03-16T20:57:46.614Z,125.60
2023-03-16T21:00:30.728Z,131.50
2023-03-16T21:03:05.410Z,124.00
2023-03-16T21:05:41.449Z,122.00
2023-03-16T21:08:09.629Z,121.10
2023-03-16T21:10:43.231Z,119.40
2023-03-16T21:13:41.676Z,120.60
2023-03-16T21:16:26.660Z,120.60
2023-03-16T21:19:11.269Z,135.70
2023-03-16T21:22:07.122Z,161.00
2023-03-16T21:24:49.081Z,150.80
2023-03-16T21:30:28.935Z,170.40
2023-03-16T21:33:10.188Z,157.30
2023-03-16T21:35:46.148Z,160.50
2023-03-16T21:38:22.571Z,150.80
2023-03-16T21:40:59.256Z,141.40
2023-03-16T21:43:31.352Z,137.80
2023-03-16T21:46:00.363Z,138.20
2023-03-16T21:48:44.216Z,123.40
2023-03-16T21:51:33.893Z,142.10
2023-03-16T21:54:09.085Z,137.30
2023-03-16T21:56:43.728Z,129.90
2023-03-16T21:59:15.882Z,133.20
2023-03-16T22:02:01.254Z,103.90
2023-03-16T22:04:34.804Z,114.50
2023-03-16T22:07:11.722Z,115.90
2023-03-16T22:09:51.369Z,111.80
2023-03-16T22:12:22.948Z,113.20
2023-03-16T22:15:06.329Z,117.30
2023-03-16T22:17:58.264Z,112.30
2023-03-16T22:20:32.806Z,105.40
2023-03-16T22:23:08.749Z,109.50
2023-03-16T22:25:49.570Z,107.20
2023-03-16T22:28:34.325Z,106.90
2023-03-16T22:31:16.118Z,109.80
2023-03-16T22:33:55.341Z,107.70
2023-03-16T22:36:39.229Z,101.40
2023-03-16T22:43:20.178Z,82.90
2023-03-16T22:46:15.091Z,85.70
2023-03-16T22:49:02.298Z,77.30
2023-03-16T22:51:40.873Z,74.50
2023-03-16T22:54:32.801Z,74.50
2023-03-16T22:57:27.675Z,71.80
2023-03-16T23:00:36.077Z,86.60
2023-03-16T23:03:36.394Z,104.00
2023-03-16T23:06:26.185Z,101.40
2023-03-16T23:09:20.507Z,97.40
2023-03-16T23:12:03.637Z,108.40
2023-03-16T23:14:38.253Z,84.20
2023-03-16T23:17:24.893Z,88.60
2023-03-16T23:20:00.487Z,85.10
2023-03-16T23:22:33.981Z,87.50
2023-03-16T23:25:05.756Z,86.50
2023-03-16T23:30:32.948Z,88.20
2023-03-16T23:33:12.396Z,92.00
2023-03-16T23:35:51.045Z,82.20
2023-03-16T23:38:22.891Z,87.20
2023-03-16T23:40:56.574Z,96.10
2023-03-16T23:43:30.713Z,94.00
2023-03-16T23:46:06.745Z,94.60
2023-03-16T23:48:53.768Z,96.30
2023-03-16T23:51:35.698Z,97.10
2023-03-16T23:54:29.536Z,98.60
2023-03-16T23:57:04.289Z,94.50
2023-03-16T23:59:32.689Z,102.80
